sensor_id;sensor_type;location;lat;lon;timestamp;pressure;altitude;pressure_sealevel;temperature;humidity
36454;BME280;22478;51.740;-1.314;2024-02-26T00:00:11;98595.11;;;-3.74;100.00
36454;BME280;22478;51.740;-1.314;2024-02-26T00:02:38;98581.76;;;-4.33;100.00
36454;BME280;22478;51.740;-1.314;2024-02-26T00:05:06;98585.79;;;-3.90;100.00
36454;BME280;22478;51.740;-1.314;2024-02-26T00:07:34;98605.54;;;-3.86;100.00
36454;BME280;22478;51.740;-1.314;2024-02-26T00:10:01;98609.17;;;-3.90;100.00
36454;BME280;22478;51.740;-1.314;2024-02-26T00:12:28;98609.51;;;-4.22;100.00
36454;BME280;22478;51.740;-1.314;2024-02-26T00:14:56;98607.85;;;-3.78;100.00
36454;BME280;22478;51.740;-1.314;2024-02-26T00:17:23;98631.20;;;-3.99;100.00
36454;BME280;22478;51.740;-1.314;2024-02-26T00:19:50;98635.04;;;-3.00;100.00
36454;BME280;22478;51.740;-1.314;2024-02-26T00:22:17;98625.88;;;-3.15;100.00
36454;BME280;22478;51.740;-1.314;2024-02-26T00:24:44;98635.14;;;-3.08;100.00
36454;BME280;22478;51.740;-1.314;2024-02-26T00:27:12;98636.44;;;-3.06;100.00
36454;BME280;22478;51.740;-1.314;2024-02-26T00:29:39;98638.93;;;-4.14;100.00
36454;BME280;22478;51.740;-1.314;2024-02-26T00:32:07;98643.64;;;-3.91;100.00
36454;BME280;22478;51.740;-1.314;2024-02-26T00:34:33;98644.41;;;-3.74;100.00
36454;BME280;22478;51.740;-1.314;2024-02-26T00:37:01;98637.83;;;-3.87;100.00
36454;BME280;22478;51.740;-1.314;2024-02-26T00:39:29;98650.91;;;-4.39;100.00
36454;BME280;22478;51.740;-1.314;2024-02-26T00:41:56;98656.24;;;-3.45;100.00
36454;BME280;22478;51.740;-1.314;2024-02-26T00:44:23;98660.91;;;-2.73;100.00
36454;BME280;22478;51.740;-1.314;2024-02-26T00:46:50;98668.81;;;-3.92;100.00
36454;BME280;22478;51.740;-1.314;2024-02-26T00:49:18;98672.34;;;-3.75;100.00
36454;BME280;22478;51.740;-1.314;2024-02-26T00:51:45;98677.93;;;-3.63;100.00
36454;BME280;22478;51.740;-1.314;2024-02-26T00:54:12;98677.72;;;-4.27;100.00
36454;BME280;22478;51.740;-1.314;2024-02-26T00:56:39;98691.46;;;-3.42;100.00
36454;BME280;22478;51.740;-1.314;2024-02-26T00:59:06;98702.48;;;-4.56;100.00
36454;BME280;22478;51.740;-1.314;2024-02-26T01:01:34;98696.56;;;-3.16;100.00
36454;BME280;22478;51.740;-1.314;2024-02-26T01:04:01;98709.16;;;-3.08;100.00
36454;BME280;22478;51.740;-1.314;2024-02-26T01:06:28;98710.38;;;-4.13;100.00
36454;BME280;22478;51.740;-1.314;2024-02-26T01:08:55;98706.73;;;-4.00;100.00
36454;BME280;22478;51.740;-1.314;2024-02-26T01:11:23;98717.78;;;-4.12;100.00
36454;BME280;22478;51.740;-1.314;2024-02-26T01:13:50;98726.55;;;-3.93;100.00
36454;BME280;22478;51.740;-1.314;2024-02-26T01:16:17;98716.77;;;-3.50;100.00
36454;BME280;22478;51.740;-1.314;2024-02-26T01:18:44;98738.78;;;-3.90;100.00
36454;BME280;22478;51.740;-1.314;2024-02-26T01:21:11;98741.46;;;-3.94;100.00
36454;BME280;22478;51.740;-1.314;2024-02-26T01:23:39;98746.83;;;-3.49;100.00
36454;BME280;22478;51.740;-1.314;2024-02-26T01:26:06;98749.81;;;-4.12;100.00
36454;BME280;22478;51.740;-1.314;2024-02-26T01:28:33;98748.29;;;-3.12;100.00
36454;BME280;22478;51.740;-1.314;2024-02-26T01:31:00;98758.90;;;-3.26;100.00
36454;BME280;22478;51.740;-1.314;2024-02-26T01:33:28;98765.10;;;-3.23;100.00
36454;BME280;22478;51.740;-1.314;2024-02-26T01:35:55;98764.58;;;-2.88;100.00
36454;BME280;22478;51.740;-1.314;2024-02-26T01:38:22;98770.02;;;-3.63;100.00
36454;BME280;22478;51.740;-1.314;2024-02-26T01:40:49;98782.41;;;-2.85;100.00
36454;BME280;22478;51.740;-1.314;2024-02-26T01:43:16;98787.27;;;-3.44;100.00
36454;BME280;22478;51.740;-1.314;2024-02-26T01:45:44;98793.62;;;-3.64;100.00
36454;BME280;22478;51.740;-1.314;2024-02-26T01:48:11;98801.47;;;-3.35;100.00
36454;BME280;22478;51.740;-1.314;2024-02-26T01:50:40;98800.25;;;-3.92;100.00
36454;BME280;22478;51.740;-1.314;2024-02-26T01:53:08;98811.55;;;-4.12;100.00
36454;BME280;22478;51.740;-1.314;2024-02-26T01:55:36;98817.51;;;-3.50;100.00
36454;BME280;22478;51.740;-1.314;2024-02-26T01:58:05;98810.43;;;-3.24;100.00
36454;BME280;22478;51.740;-1.314;2024-02-26T02:00:32;98820.89;;;-3.57;100.00
36454;BME280;22478;51.740;-1.314;2024-02-26T02:03:00;98825.19;;;-3.72;100.00
36454;BME280;22478;51.740;-1.314;2024-02-26T02:05:29;98828.59;;;-3.16;100.00
36454;BME280;22478;51.740;-1.314;2024-02-26T02:07:57;98836.51;;;-2.45;100.00
36454;BME280;22478;51.740;-1.314;2024-02-26T02:10:26;98841.13;;;-3.67;100.00
36454;BME280;22478;51.740;-1.314;2024-02-26T02:12:53;98843.98;;;-3.82;100.00
36454;BME280;22478;51.740;-1.314;2024-02-26T02:15:20;98842.69;;;-3.40;100.00
36454;BME280;22478;51.740;-1.314;2024-02-26T02:17:48;98846.34;;;-3.42;100.00
36454;BME280;22478;51.740;-1.314;2024-02-26T02:20:17;98843.71;;;-1.97;100.00
36454;BME280;22478;51.740;-1.314;2024-02-26T02:22:45;98846.13;;;-1.97;100.00
36454;BME280;22478;51.740;-1.314;2024-02-26T02:25:13;98854.33;;;-2.59;100.00
36454;BME280;22478;51.740;-1.314;2024-02-26T02:27:40;98863.79;;;-3.70;100.00
36454;BME280;22478;51.740;-1.314;2024-02-26T02:30:09;98857.45;;;-2.57;100.00
36454;BME280;22478;51.740;-1.314;2024-02-26T02:32:39;98862.33;;;-3.94;100.00
36454;BME280;22478;51.740;-1.314;2024-02-26T02:35:07;98870.77;;;-3.13;100.00
36454;BME280;22478;51.740;-1.314;2024-02-26T02:37:35;98868.98;;;-3.08;100.00
36454;BME280;22478;51.740;-1.314;2024-02-26T02:40:02;98865.52;;;-2.38;100.00
36454;BME280;22478;51.740;-1.314;2024-02-26T02:42:29;98881.85;;;-3.28;100.00
36454;BME280;22478;51.740;-1.314;2024-02-26T02:44:56;98878.52;;;-3.51;100.00
36454;BME280;22478;51.740;-1.314;2024-02-26T02:47:24;98878.64;;;-4.17;100.00
36454;BME280;22478;51.740;-1.314;2024-02-26T02:49:50;98884.74;;;-3.28;100.00
36454;BME280;22478;51.740;-1.314;2024-02-26T02:52:18;98879.03;;;-3.69;100.00
36454;BME280;22478;51.740;-1.314;2024-02-26T02:54:45;98897.65;;;-3.97;100.00
36454;BME280;22478;51.740;-1.314;2024-02-26T02:57:12;98898.46;;;-3.74;100.00
36454;BME280;22478;51.740;-1.314;2024-02-26T02:59:39;98902.94;;;-3.16;100.00
36454;BME280;22478;51.740;-1.314;2024-02-26T03:02:07;98914.04;;;-3.46;100.00
36454;BME280;22478;51.740;-1.314;2024-02-26T03:04:34;98916.91;;;-3.27;100.00
36454;BME280;22478;51.740;-1.314;2024-02-26T03:07:01;98920.67;;;-3.89;100.00
36454;BME280;22478;51.740;-1.314;2024-02-26T03:09:28;98927.43;;;-2.71;100.00
36454;BME280;22478;51.740;-1.314;2024-02-26T03:11:56;98938.48;;;-3.55;100.00
36454;BME280;22478;51.740;-1.314;2024-02-26T03:14:23;98945.42;;;-3.97;100.00
36454;BME280;22478;51.740;-1.314;2024-02-26T03:16:53;98947.03;;;-3.64;100.00
36454;BME280;22478;51.740;-1.314;2024-02-26T03:19:21;98957.38;;;-3.77;100.00
36454;BME280;22478;51.740;-1.314;2024-02-26T03:21:48;98954.40;;;-3.84;100.00
36454;BME280;22478;51.740;-1.314;2024-02-26T03:24:15;98957.51;;;-4.02;100.00
36454;BME280;22478;51.740;-1.314;2024-02-26T03:26:42;98969.39;;;-3.70;100.00
36454;BME280;22478;51.740;-1.314;2024-02-26T03:29:10;98983.05;;;-4.05;100.00
36454;BME280;22478;51.740;-1.314;2024-02-26T03:31:37;98977.12;;;-3.88;100.00
36454;BME280;22478;51.740;-1.314;2024-02-26T03:34:04;98987.49;;;-3.99;100.00
36454;BME280;22478;51.740;-1.314;2024-02-26T03:36:31;98997.50;;;-4.16;100.00
36454;BME280;22478;51.740;-1.314;2024-02-26T03:38:59;99005.17;;;-3.54;100.00
36454;BME280;22478;51.740;-1.314;2024-02-26T03:41:26;98998.37;;;-4.01;100.00
36454;BME280;22478;51.740;-1.314;2024-02-26T03:43:53;99004.89;;;-3.37;100.00
36454;BME280;22478;51.740;-1.314;2024-02-26T03:46:20;99010.59;;;-4.82;100.00
36454;BME280;22478;51.740;-1.314;2024-02-26T03:48:47;99023.42;;;-4.13;100.00
36454;BME280;22478;51.740;-1.314;2024-02-26T03:51:15;99025.55;;;-4.29;100.00
36454;BME280;22478;51.740;-1.314;2024-02-26T03:53:42;99029.18;;;-3.80;100.00
36454;BME280;22478;51.740;-1.314;2024-02-26T03:56:11;99040.83;;;-4.40;100.00
36454;BME280;22478;51.740;-1.314;2024-02-26T03:58:39;99040.59;;;-3.98;100.00
36454;BME280;22478;51.740;-1.314;2024-02-26T04:01:07;99034.81;;;-4.12;100.00
36454;BME280;22478;51.740;-1.314;2024-02-26T04:03:34;99048.70;;;-3.93;100.00
36454;BME280;22478;51.740;-1.314;2024-02-26T04:06:02;99067.48;;;-3.64;100.00
36454;BME280;22478;51.740;-1.314;2024-02-26T04:08:29;99063.67;;;-3.72;100.00
36454;BME280;22478;51.740;-1.314;2024-02-26T04:10:56;99069.95;;;-4.26;100.00
36454;BME280;22478;51.740;-1.314;2024-02-26T04:13:24;99076.32;;;-4.08;100.00
36454;BME280;22478;51.740;-1.314;2024-02-26T04:15:51;99077.00;;;-3.46;100.00
36454;BME280;22478;51.740;-1.314;2024-02-26T04:18:18;99092.52;;;-3.50;100.00
36454;BME280;22478;51.740;-1.314;2024-02-26T04:20:45;99098.22;;;-3.57;100.00
36454;BME280;22478;51.740;-1.314;2024-02-26T04:23:13;99117.06;;;-4.45;100.00
36454;BME280;22478;51.740;-1.314;2024-02-26T04:25:40;99100.74;;;-3.73;100.00
36454;BME280;22478;51.740;-1.314;2024-02-26T04:28:07;99114.49;;;-3.86;100.00
36454;BME280;22478;51.740;-1.314;2024-02-26T04:30:34;99121.04;;;-3.63;100.00
36454;BME280;22478;51.740;-1.314;2024-02-26T04:33:01;99120.04;;;-3.52;100.00
36454;BME280;22478;51.740;-1.314;2024-02-26T04:35:29;99140.80;;;-3.92;100.00
36454;BME280;22478;51.740;-1.314;2024-02-26T04:37:56;99135.32;;;-4.36;100.00
36454;BME280;22478;51.740;-1.314;2024-02-26T04:40:23;99142.56;;;-3.98;100.00
36454;BME280;22478;51.740;-1.314;2024-02-26T04:42:50;99144.11;;;-3.83;100.00
36454;BME280;22478;51.740;-1.314;2024-02-26T04:45:17;99146.87;;;-3.75;100.00
36454;BME280;22478;51.740;-1.314;2024-02-26T04:47:44;99161.82;;;-4.08;100.00
36454;BME280;22478;51.740;-1.314;2024-02-26T04:50:12;99162.36;;;-4.48;100.00
36454;BME280;22478;51.740;-1.314;2024-02-26T04:52:39;99169.63;;;-4.10;100.00
36454;BME280;22478;51.740;-1.314;2024-02-26T04:55:07;99179.89;;;-4.17;100.00
36454;BME280;22478;51.740;-1.314;2024-02-26T04:57:34;99175.57;;;-3.67;100.00
36454;BME280;22478;51.740;-1.314;2024-02-26T05:00:01;99178.75;;;-4.24;100.00
36454;BME280;22478;51.740;-1.314;2024-02-26T05:02:28;99184.48;;;-3.90;100.00
36454;BME280;22478;51.740;-1.314;2024-02-26T05:04:56;99197.26;;;-4.14;100.00
36454;BME280;22478;51.740;-1.314;2024-02-26T05:07:23;99200.79;;;-4.24;100.00
36454;BME280;22478;51.740;-1.314;2024-02-26T05:09:50;99193.51;;;-4.11;100.00
36454;BME280;22478;51.740;-1.314;2024-02-26T05:12:17;99214.52;;;-4.31;100.00
36454;BME280;22478;51.740;-1.314;2024-02-26T05:14:44;99215.63;;;-4.85;100.00
36454;BME280;22478;51.740;-1.314;2024-02-26T05:17:12;99234.62;;;-4.27;100.00
36454;BME280;22478;51.740;-1.314;2024-02-26T05:19:39;99229.63;;;-4.26;100.00
36454;BME280;22478;51.740;-1.314;2024-02-26T05:22:06;99239.82;;;-4.05;100.00
36454;BME280;22478;51.740;-1.314;2024-02-26T05:24:33;99242.47;;;-3.66;100.00
36454;BME280;22478;51.740;-1.314;2024-02-26T05:27:01;99247.76;;;-3.77;100.00
36454;BME280;22478;51.740;-1.314;2024-02-26T05:29:28;99247.86;;;-4.02;100.00
36454;BME280;22478;51.740;-1.314;2024-02-26T05:31:55;99254.83;;;-4.12;100.00
36454;BME280;22478;51.740;-1.314;2024-02-26T05:34:22;99273.15;;;-3.79;100.00
36454;BME280;22478;51.740;-1.314;2024-02-26T05:36:50;99278.40;;;-4.41;100.00
36454;BME280;22478;51.740;-1.314;2024-02-26T05:39:17;99271.49;;;-4.24;100.00
36454;BME280;22478;51.740;-1.314;2024-02-26T05:41:44;99283.46;;;-3.73;100.00
36454;BME280;22478;51.740;-1.314;2024-02-26T05:44:11;99289.18;;;-4.26;100.00
36454;BME280;22478;51.740;-1.314;2024-02-26T05:46:39;99283.07;;;-4.54;100.00
36454;BME280;22478;51.740;-1.314;2024-02-26T05:49:06;99295.40;;;-3.96;100.00
36454;BME280;22478;51.740;-1.314;2024-02-26T05:51:33;99308.33;;;-3.89;100.00
36454;BME280;22478;51.740;-1.314;2024-02-26T05:54:00;99317.97;;;-3.85;100.00
36454;BME280;22478;51.740;-1.314;2024-02-26T05:56:27;99324.58;;;-4.03;100.00
36454;BME280;22478;51.740;-1.314;2024-02-26T05:58:54;99322.22;;;-4.26;100.00
36454;BME280;22478;51.740;-1.314;2024-02-26T06:01:21;99336.69;;;-4.04;100.00
36454;BME280;22478;51.740;-1.314;2024-02-26T06:03:49;99340.81;;;-3.43;100.00
36454;BME280;22478;51.740;-1.314;2024-02-26T06:06:16;99341.89;;;-3.81;100.00
36454;BME280;22478;51.740;-1.314;2024-02-26T06:08:44;99334.71;;;-2.76;100.00
36454;BME280;22478;51.740;-1.314;2024-02-26T06:11:11;99345.76;;;-3.67;100.00
36454;BME280;22478;51.740;-1.314;2024-02-26T06:13:38;99352.27;;;-4.33;100.00
36454;BME280;22478;51.740;-1.314;2024-02-26T06:16:08;99355.77;;;-3.87;100.00
36454;BME280;22478;51.740;-1.314;2024-02-26T06:18:35;99361.92;;;-3.70;100.00
36454;BME280;22478;51.740;-1.314;2024-02-26T06:21:02;99373.56;;;-3.69;100.00
36454;BME280;22478;51.740;-1.314;2024-02-26T06:23:29;99371.12;;;-3.40;100.00
36454;BME280;22478;51.740;-1.314;2024-02-26T06:25:57;99375.54;;;-3.74;100.00
36454;BME280;22478;51.740;-1.314;2024-02-26T06:28:24;99381.42;;;-3.22;100.00
36454;BME280;22478;51.740;-1.314;2024-02-26T06:30:51;99388.00;;;-3.13;100.00
36454;BME280;22478;51.740;-1.314;2024-02-26T06:33:18;99391.73;;;-3.67;100.00
36454;BME280;22478;51.740;-1.314;2024-02-26T06:35:46;99403.80;;;-3.05;100.00
36454;BME280;22478;51.740;-1.314;2024-02-26T06:38:13;99408.46;;;-4.05;100.00
36454;BME280;22478;51.740;-1.314;2024-02-26T06:40:40;99416.44;;;-3.82;100.00
36454;BME280;22478;51.740;-1.314;2024-02-26T06:43:07;99419.37;;;-3.34;100.00
36454;BME280;22478;51.740;-1.314;2024-02-26T06:45:34;99412.24;;;-2.69;100.00
36454;BME280;22478;51.740;-1.314;2024-02-26T06:48:02;99434.89;;;-3.91;100.00
36454;BME280;22478;51.740;-1.314;2024-02-26T06:50:29;99438.15;;;-3.64;100.00
36454;BME280;22478;51.740;-1.314;2024-02-26T06:52:56;99442.31;;;-3.57;100.00
36454;BME280;22478;51.740;-1.314;2024-02-26T06:55:23;99448.71;;;-3.94;100.00
36454;BME280;22478;51.740;-1.314;2024-02-26T06:57:50;99445.03;;;-3.36;100.00
36454;BME280;22478;51.740;-1.314;2024-02-26T07:00:18;99455.13;;;-2.97;100.00
36454;BME280;22478;51.740;-1.314;2024-02-26T07:02:46;99465.05;;;-4.11;100.00
36454;BME280;22478;51.740;-1.314;2024-02-26T07:05:13;99464.93;;;-4.24;100.00
36454;BME280;22478;51.740;-1.314;2024-02-26T07:07:40;99484.02;;;-4.44;100.00
36454;BME280;22478;51.740;-1.314;2024-02-26T07:10:08;99488.21;;;-4.03;100.00
36454;BME280;22478;51.740;-1.314;2024-02-26T07:12:36;99497.22;;;-4.43;100.00
36454;BME280;22478;51.740;-1.314;2024-02-26T07:15:05;99503.67;;;-3.95;100.00
36454;BME280;22478;51.740;-1.314;2024-02-26T07:17:33;99510.00;;;-3.62;100.00
36454;BME280;22478;51.740;-1.314;2024-02-26T07:20:00;99507.12;;;-3.32;100.00
36454;BME280;22478;51.740;-1.314;2024-02-26T07:22:27;99514.16;;;-3.69;100.00
36454;BME280;22478;51.740;-1.314;2024-02-26T07:24:54;99527.32;;;-3.71;100.00
36454;BME280;22478;51.740;-1.314;2024-02-26T07:27:22;99523.15;;;-3.41;100.00
36454;BME280;22478;51.740;-1.314;2024-02-26T07:29:49;99533.07;;;-3.65;100.00
36454;BME280;22478;51.740;-1.314;2024-02-26T07:32:16;99542.69;;;-4.06;100.00
36454;BME280;22478;51.740;-1.314;2024-02-26T07:34:43;99540.80;;;-3.63;100.00
36454;BME280;22478;51.740;-1.314;2024-02-26T07:37:10;99550.34;;;-4.03;100.00
36454;BME280;22478;51.740;-1.314;2024-02-26T07:39:38;99548.34;;;-4.77;100.00
36454;BME280;22478;51.740;-1.314;2024-02-26T07:42:05;99556.74;;;-4.12;100.00
36454;BME280;22478;51.740;-1.314;2024-02-26T07:44:33;99565.06;;;-4.10;100.00
36454;BME280;22478;51.740;-1.314;2024-02-26T07:47:00;99567.77;;;-4.09;100.00
36454;BME280;22478;51.740;-1.314;2024-02-26T07:49:27;99566.82;;;-3.83;100.00
36454;BME280;22478;51.740;-1.314;2024-02-26T07:51:55;99578.32;;;-4.06;100.00
36454;BME280;22478;51.740;-1.314;2024-02-26T07:54:22;99576.60;;;-3.06;100.00
36454;BME280;22478;51.740;-1.314;2024-02-26T07:56:49;99579.28;;;-3.87;100.00
36454;BME280;22478;51.740;-1.314;2024-02-26T07:59:16;99586.09;;;-4.20;100.00
36454;BME280;22478;51.740;-1.314;2024-02-26T08:01:44;99597.92;;;-3.66;100.00
36454;BME280;22478;51.740;-1.314;2024-02-26T08:04:11;99595.66;;;-3.55;100.00
36454;BME280;22478;51.740;-1.314;2024-02-26T08:06:38;99593.64;;;-4.11;100.00
36454;BME280;22478;51.740;-1.314;2024-02-26T08:09:05;99609.84;;;-3.47;100.00
36454;BME280;22478;51.740;-1.314;2024-02-26T08:11:32;99613.26;;;-3.58;100.00
36454;BME280;22478;51.740;-1.314;2024-02-26T08:14:00;99621.31;;;-4.46;100.00
36454;BME280;22478;51.740;-1.314;2024-02-26T08:16:27;99608.01;;;-2.52;100.00
36454;BME280;22478;51.740;-1.314;2024-02-26T08:18:55;99621.10;;;-4.45;100.00
36454;BME280;22478;51.740;-1.314;2024-02-26T08:21:22;99619.34;;;-4.44;100.00
36454;BME280;22478;51.740;-1.314;2024-02-26T08:23:50;99626.65;;;-3.29;100.00
36454;BME280;22478;51.740;-1.314;2024-02-26T08:26:17;99625.77;;;-3.20;100.00
36454;BME280;22478;51.740;-1.314;2024-02-26T08:28:44;99640.10;;;-3.33;100.00
36454;BME280;22478;51.740;-1.314;2024-02-26T08:31:11;99635.88;;;-3.41;100.00
36454;BME280;22478;51.740;-1.314;2024-02-26T08:33:38;99652.29;;;-4.01;100.00
36454;BME280;22478;51.740;-1.314;2024-02-26T08:36:06;99643.55;;;-2.87;100.00
36454;BME280;22478;51.740;-1.314;2024-02-26T08:38:33;99649.89;;;-3.97;100.00
36454;BME280;22478;51.740;-1.314;2024-02-26T08:41:01;99649.72;;;-3.27;100.00
36454;BME280;22478;51.740;-1.314;2024-02-26T08:43:28;99648.98;;;-3.51;100.00
36454;BME280;22478;51.740;-1.314;2024-02-26T08:45:56;99658.13;;;-4.08;100.00
36454;BME280;22478;51.740;-1.314;2024-02-26T08:48:24;99655.56;;;-2.49;100.00
36454;BME280;22478;51.740;-1.314;2024-02-26T08:50:51;99661.15;;;-3.90;100.00
36454;BME280;22478;51.740;-1.314;2024-02-26T08:53:19;99677.85;;;-3.35;100.00
36454;BME280;22478;51.740;-1.314;2024-02-26T08:55:47;99685.94;;;-4.25;100.00
36454;BME280;22478;51.740;-1.314;2024-02-26T08:58:14;99692.29;;;-3.35;100.00
36454;BME280;22478;51.740;-1.314;2024-02-26T09:00:41;99696.21;;;-4.75;100.00
36454;BME280;22478;51.740;-1.314;2024-02-26T09:03:08;99712.91;;;-4.10;100.00
36454;BME280;22478;51.740;-1.314;2024-02-26T09:05:36;99712.60;;;-3.20;100.00
36454;BME280;22478;51.740;-1.314;2024-02-26T09:08:03;99704.52;;;-3.70;100.00
36454;BME280;22478;51.740;-1.314;2024-02-26T09:10:31;99715.84;;;-3.75;100.00
36454;BME280;22478;51.740;-1.314;2024-02-26T09:12:58;99711.62;;;-3.48;100.00
36454;BME280;22478;51.740;-1.314;2024-02-26T09:15:25;99715.52;;;-3.47;100.00
36454;BME280;22478;51.740;-1.314;2024-02-26T09:17:52;99730.65;;;-3.76;100.00
36454;BME280;22478;51.740;-1.314;2024-02-26T09:20:20;99738.14;;;-3.68;100.00
36454;BME280;22478;51.740;-1.314;2024-02-26T09:22:47;99742.56;;;-3.40;100.00
36454;BME280;22478;51.740;-1.314;2024-02-26T09:25:14;99741.60;;;-3.08;100.00
36454;BME280;22478;51.740;-1.314;2024-02-26T09:27:41;99746.67;;;-2.80;100.00
36454;BME280;22478;51.740;-1.314;2024-02-26T09:30:10;99741.22;;;-1.85;100.00
36454;BME280;22478;51.740;-1.314;2024-02-26T09:32:38;99747.51;;;-2.22;100.00
36454;BME280;22478;51.740;-1.314;2024-02-26T09:35:06;99755.49;;;-2.58;100.00
36454;BME280;22478;51.740;-1.314;2024-02-26T09:37:34;99758.66;;;-2.34;100.00
36454;BME280;22478;51.740;-1.314;2024-02-26T09:40:02;99768.47;;;-2.71;100.00
36454;BME280;22478;51.740;-1.314;2024-02-26T09:42:31;99773.23;;;-2.23;100.00
36454;BME280;22478;51.740;-1.314;2024-02-26T09:45:00;99780.21;;;-2.22;100.00
36454;BME280;22478;51.740;-1.314;2024-02-26T09:47:31;99778.64;;;-1.65;100.00
36454;BME280;22478;51.740;-1.314;2024-02-26T09:49:59;99796.41;;;-2.74;100.00
36454;BME280;22478;51.740;-1.314;2024-02-26T09:52:28;99777.26;;;-1.75;100.00
36454;BME280;22478;51.740;-1.314;2024-02-26T09:54:57;99790.58;;;-2.55;100.00
36454;BME280;22478;51.740;-1.314;2024-02-26T09:57:25;99785.32;;;-1.44;100.00
36454;BME280;22478;51.740;-1.314;2024-02-26T09:59:54;99804.17;;;-2.56;100.00
36454;BME280;22478;51.740;-1.314;2024-02-26T10:02:25;99813.02;;;-2.71;100.00
36454;BME280;22478;51.740;-1.314;2024-02-26T10:04:54;99803.33;;;-1.92;100.00
36454;BME280;22478;51.740;-1.314;2024-02-26T10:07:22;99822.09;;;-2.13;100.00
36454;BME280;22478;51.740;-1.314;2024-02-26T10:09:50;99817.07;;;-2.15;100.00
36454;BME280;22478;51.740;-1.314;2024-02-26T10:12:18;99810.87;;;-1.61;100.00
36454;BME280;22478;51.740;-1.314;2024-02-26T10:14:45;99815.77;;;-1.37;100.00
36454;BME280;22478;51.740;-1.314;2024-02-26T10:17:12;99821.50;;;-0.62;100.00
36454;BME280;22478;51.740;-1.314;2024-02-26T10:19:40;99812.86;;;0.47;100.00
36454;BME280;22478;51.740;-1.314;2024-02-26T10:22:07;99815.68;;;0.21;100.00
36454;BME280;22478;51.740;-1.314;2024-02-26T10:24:34;99828.70;;;-1.22;100.00
36454;BME280;22478;51.740;-1.314;2024-02-26T10:27:02;99835.61;;;-1.13;100.00
36454;BME280;22478;51.740;-1.314;2024-02-26T10:29:29;99871.51;;;-2.59;100.00
36454;BME280;22478;51.740;-1.314;2024-02-26T10:31:57;99846.01;;;-1.27;100.00
36454;BME280;22478;51.740;-1.314;2024-02-26T10:34:24;99850.91;;;0.08;100.00
36454;BME280;22478;51.740;-1.314;2024-02-26T10:36:51;99858.29;;;-0.23;100.00
36454;BME280;22478;51.740;-1.314;2024-02-26T10:39:18;99859.85;;;-1.00;100.00
36454;BME280;22478;51.740;-1.314;2024-02-26T10:41:45;99868.14;;;0.01;100.00
36454;BME280;22478;51.740;-1.314;2024-02-26T10:44:13;99877.86;;;-0.14;100.00
36454;BME280;22478;51.740;-1.314;2024-02-26T10:46:40;99878.95;;;0.31;100.00
36454;BME280;22478;51.740;-1.314;2024-02-26T10:49:14;99872.57;;;-0.25;100.00
36454;BME280;22478;51.740;-1.314;2024-02-26T10:51:44;99882.32;;;-0.93;100.00
36454;BME280;22478;51.740;-1.314;2024-02-26T10:54:15;99889.08;;;0.26;100.00
36454;BME280;22478;51.740;-1.314;2024-02-26T10:56:43;99902.27;;;-0.13;100.00
36454;BME280;22478;51.740;-1.314;2024-02-26T10:59:14;99916.72;;;0.02;100.00
36454;BME280;22478;51.740;-1.314;2024-02-26T11:01:43;99897.94;;;-0.31;100.00
36454;BME280;22478;51.740;-1.314;2024-02-26T11:04:11;99905.03;;;0.04;100.00
36454;BME280;22478;51.740;-1.314;2024-02-26T11:06:40;99901.69;;;1.26;100.00
36454;BME280;22478;51.740;-1.314;2024-02-26T11:09:08;99915.92;;;1.07;100.00
36454;BME280;22478;51.740;-1.314;2024-02-26T11:11:38;99918.63;;;0.25;100.00
36454;BME280;22478;51.740;-1.314;2024-02-26T11:14:05;99927.56;;;-0.17;100.00
36454;BME280;22478;51.740;-1.314;2024-02-26T11:16:35;99932.97;;;-0.46;100.00
36454;BME280;22478;51.740;-1.314;2024-02-26T11:19:02;99929.01;;;-0.64;100.00
36454;BME280;22478;51.740;-1.314;2024-02-26T11:21:30;99926.96;;;-0.79;100.00
36454;BME280;22478;51.740;-1.314;2024-02-26T11:23:57;99942.71;;;-0.34;100.00
36454;BME280;22478;51.740;-1.314;2024-02-26T11:26:26;99938.06;;;-0.15;100.00
36454;BME280;22478;51.740;-1.314;2024-02-26T11:28:55;99944.97;;;0.12;100.00
36454;BME280;22478;51.740;-1.314;2024-02-26T11:31:24;99947.51;;;0.14;100.00
36454;BME280;22478;51.740;-1.314;2024-02-26T11:33:52;99955.06;;;-0.86;100.00
36454;BME280;22478;51.740;-1.314;2024-02-26T11:36:20;99953.10;;;-0.15;100.00
36454;BME280;22478;51.740;-1.314;2024-02-26T11:38:47;99948.05;;;-0.06;100.00
36454;BME280;22478;51.740;-1.314;2024-02-26T11:41:15;99953.54;;;-0.88;100.00
36454;BME280;22478;51.740;-1.314;2024-02-26T11:43:51;99966.32;;;-1.49;100.00
36454;BME280;22478;51.740;-1.314;2024-02-26T11:46:28;99964.25;;;-0.70;100.00
36454;BME280;22478;51.740;-1.314;2024-02-26T11:48:59;99985.97;;;-0.73;100.00
36454;BME280;22478;51.740;-1.314;2024-02-26T11:51:28;99977.56;;;-0.71;100.00
36454;BME280;22478;51.740;-1.314;2024-02-26T11:53:58;99982.17;;;0.05;100.00
36454;BME280;22478;51.740;-1.314;2024-02-26T11:56:26;99984.09;;;-0.01;100.00
36454;BME280;22478;51.740;-1.314;2024-02-26T11:58:58;99976.72;;;-0.17;100.00
36454;BME280;22478;51.740;-1.314;2024-02-26T12:01:43;99981.38;;;0.50;100.00
36454;BME280;22478;51.740;-1.314;2024-02-26T12:04:15;99982.67;;;0.66;100.00
36454;BME280;22478;51.740;-1.314;2024-02-26T12:06:46;99985.61;;;0.21;100.00
36454;BME280;22478;51.740;-1.314;2024-02-26T12:09:30;99983.52;;;2.16;100.00
36454;BME280;22478;51.740;-1.314;2024-02-26T12:11:59;99981.64;;;3.17;93.61
36454;BME280;22478;51.740;-1.314;2024-02-26T12:14:26;99979.91;;;3.66;84.72
36454;BME280;22478;51.740;-1.314;2024-02-26T12:16:55;99981.19;;;3.31;85.63
36454;BME280;22478;51.740;-1.314;2024-02-26T12:19:23;100001.74;;;2.10;80.78
36454;BME280;22478;51.740;-1.314;2024-02-26T12:21:52;99990.03;;;1.09;87.31
36454;BME280;22478;51.740;-1.314;2024-02-26T12:24:20;99982.37;;;1.03;87.34
36454;BME280;22478;51.740;-1.314;2024-02-26T12:26:47;99992.91;;;1.76;88.91
36454;BME280;22478;51.740;-1.314;2024-02-26T12:29:14;99989.54;;;1.41;89.97
36454;BME280;22478;51.740;-1.314;2024-02-26T12:31:43;100005.99;;;0.17;98.72
36454;BME280;22478;51.740;-1.314;2024-02-26T12:34:10;100014.81;;;0.19;100.00
36454;BME280;22478;51.740;-1.314;2024-02-26T12:36:38;100012.32;;;0.99;99.49
36454;BME280;22478;51.740;-1.314;2024-02-26T12:39:05;100009.84;;;2.85;92.09
36454;BME280;22478;51.740;-1.314;2024-02-26T12:41:34;100005.27;;;3.11;85.94